CheckWX is a tool to help pilots better visualize weather data.  It is not intended as a substitute for an official pre-flight weather briefing.

12:27:08 UTC

KHSV TAF
Huntsville International-Carl T Jones Field Airport
Huntsville, Alabama, USA
KHSV 221120Z 2212/2312 33006KT P6SM FEW250 FM221800 30010G18KT P6SM SKC FM230000 03004KT P6SM SKC

Mar-22@
12:00 UTC

Mar-22 @ 12:00 UTC

Mar-22@
18:00 UTC

Mar-22 @ 18:00 UTC

KHSV 221120Z 2212/2312 33006KT P6SM FEW250
Wind
  • 330° at 6 KTS
Cloud Levels
  • Few at 25,000' AGL

Mar-22@
18:00 UTC

Mar-22 @ 18:00 UTC

Mar-23@
00:00 UTC

Mar-23 @ 00:00 UTC

FM221800 30010G18KT P6SM SKC

From

From Standard forecast or significant change

Wind
  • 300° at 10 KTS
  • {Gusting to 18 KTS
Cloud Levels
  • Clear skies

Mar-23@
00:00 UTC

Mar-23 @ 00:00 UTC

Mar-23@
12:00 UTC

Mar-23 @ 12:00 UTC

FM230000 03004KT P6SM SKC

From

From Standard forecast or significant change

Wind
  • 030° at 4 KTS
Cloud Levels
  • Clear skies